Time;durP1;ratioP1;P1;durP2;ratioP2;P2;SDS_P1;SDS_P2;PMS_P1;PMS_P2;Temp;Humidity;BMP_temperature;BMP_pressure;BME280_temperature;BME280_humidity;BME280_pressure;Samples;Min_cycle;Max_cycle;Signal;HPM_P1;HPM_P2
2022/12/05 00:02:22;;;;;;;24.52;11.70;;;4.10;88.60;;;;;;5004862;28;20528;-60
2022/12/05 00:04:49;;;;;;;22.92;11.75;;;4.00;88.60;;;;;;5005163;28;20569;-61
2022/12/05 00:07:17;;;;;;;21.52;10.48;;;4.10;88.60;;;;;;5002712;28;20046;-61
2022/12/05 00:09:44;;;;;;;21.35;11.63;;;4.10;88.70;;;;;;5006142;28;20056;-61
2022/12/05 00:12:11;;;;;;;23.33;12.38;;;4.10;88.70;;;;;;5004933;28;20089;-63
2022/12/05 00:14:44;;;;;;;22.10;11.55;;;4.10;88.70;;;;;;5006642;28;20504;-64
2022/12/05 00:17:11;;;;;;;21.45;10.93;;;4.10;88.80;;;;;;4997831;28;20552;-65
2022/12/05 00:19:39;;;;;;;21.48;10.65;;;4.00;88.90;;;;;;4999448;28;20057;-65
2022/12/05 00:22:06;;;;;;;21.58;10.88;;;4.10;89.00;;;;;;5010372;28;20093;-64
2022/12/05 00:24:34;;;;;;;23.15;11.38;;;4.00;88.70;;;;;;5007588;28;20042;-65
2022/12/05 00:27:01;;;;;;;26.00;11.43;;;4.10;88.90;;;;;;5005460;28;20240;-65
2022/12/05 00:29:28;;;;;;;23.60;11.93;;;4.10;88.80;;;;;;4997027;28;20145;-65
2022/12/05 00:31:55;;;;;;;20.80;10.35;;;4.10;88.70;;;;;;5000191;28;20038;-65
2022/12/05 00:34:22;;;;;;;23.25;10.77;;;4.10;88.90;;;;;;5003203;28;20050;-66
2022/12/05 00:36:49;;;;;;;21.05;10.65;;;4.10;88.90;;;;;;5004604;28;20049;-63
2022/12/05 00:39:16;;;;;;;22.83;11.55;;;4.10;88.80;;;;;;4997933;28;20050;-63
2022/12/05 00:41:45;;;;;;;24.05;11.93;;;4.10;88.90;;;;;;4995445;28;20489;-62
2022/12/05 00:44:13;;;;;;;21.02;10.93;;;4.10;88.90;;;;;;4995392;28;20046;-63
2022/12/05 00:46:40;;;;;;;22.88;11.43;;;4.10;88.80;;;;;;4994996;28;20046;-59
2022/12/05 00:49:07;;;;;;;22.30;10.18;;;4.10;88.80;;;;;;4998627;28;20057;-60
2022/12/05 00:51:37;;;;;;;24.35;12.23;;;4.10;88.90;;;;;;5003544;28;20042;-61
2022/12/05 00:54:06;;;;;;;22.42;10.93;;;4.10;88.90;;;;;;5003563;28;20121;-61
2022/12/05 00:56:34;;;;;;;22.50;11.52;;;4.10;89.00;;;;;;5004100;28;20046;-60
2022/12/05 00:59:04;;;;;;;20.52;10.23;;;4.10;89.10;;;;;;5005704;28;20039;-60
2022/12/05 01:01:33;;;;;;;23.85;11.38;;;4.10;89.10;;;;;;5004071;28;20117;-60
2022/12/05 01:04:03;;;;;;;22.92;10.43;;;4.10;89.10;;;;;;4999582;28;20501;-60
2022/12/05 01:06:30;;;;;;;19.87;10.63;;;4.10;89.10;;;;;;5007653;28;20042;-60
2022/12/05 01:08:57;;;;;;;18.80;10.73;;;4.10;89.10;;;;;;5004785;28;20048;-60
2022/12/05 01:11:25;;;;;;;22.48;10.95;;;4.10;89.10;;;;;;4998717;28;20508;-61
2022/12/05 01:13:52;;;;;;;20.70;10.02;;;4.10;89.10;;;;;;5001481;28;20048;-60
2022/12/05 01:16:24;;;;;;;20.92;10.00;;;4.00;89.10;;;;;;5000083;28;20505;-69
2022/12/05 01:18:51;;;;;;;21.88;11.05;;;4.10;89.10;;;;;;4993633;28;20049;-71
2022/12/05 01:21:18;;;;;;;20.10;10.05;;;4.10;89.10;;;;;;5000566;28;20078;-61
2022/12/05 01:23:45;;;;;;;19.83;10.32;;;4.10;89.20;;;;;;5008992;28;20496;-61
2022/12/05 01:26:14;;;;;;;19.00;10.00;;;4.10;89.20;;;;;;4994423;28;20034;-60
2022/12/05 01:28:42;;;;;;;20.45;10.55;;;4.10;89.20;;;;;;5002740;28;20038;-60
2022/12/05 01:31:20;;;;;;;20.33;10.27;;;4.10;89.20;;;;;;5005091;28;20065;-60
2022/12/05 01:33:49;;;;;;;20.80;11.10;;;4.10;89.10;;;;;;5002608;28;20054;-61
2022/12/05 01:36:16;;;;;;;22.92;10.50;;;4.10;89.10;;;;;;5003442;28;20061;-61
2022/12/05 01:38:44;;;;;;;21.55;10.57;;;4.10;89.10;;;;;;5001017;28;20105;-61
2022/12/05 01:41:15;;;;;;;19.13;10.38;;;4.10;89.10;;;;;;5003376;28;20124;-61
2022/12/05 01:44:00;;;;;;;21.23;10.73;;;4.10;89.10;;;;;;5004795;28;20085;-61
2022/12/05 01:46:30;;;;;;;18.90;9.85;;;4.10;89.20;;;;;;4982524;28;20125;-59
2022/12/05 01:49:03;;;;;;;19.98;9.77;;;4.10;89.40;;;;;;5002387;28;20046;-61
2022/12/05 01:51:32;;;;;;;18.67;9.30;;;4.00;89.30;;;;;;4979296;28;20524;-62
2022/12/05 01:54:00;;;;;;;18.40;9.60;;;4.00;89.30;;;;;;4998398;28;20050;-62
2022/12/05 01:56:31;;;;;;;18.17;9.85;;;4.10;89.40;;;;;;4993090;28;20082;-62
2022/12/05 01:58:59;;;;;;;16.95;9.68;;;4.00;89.30;;;;;;5000528;28;20053;-60
2022/12/05 02:01:30;;;;;;;16.63;9.18;;;4.10;89.40;;;;;;4991646;28;20072;-61
2022/12/05 02:04:00;;;;;;;21.92;10.27;;;4.00;89.50;;;;;;5001153;28;20043;-60
2022/12/05 02:06:29;;;;;;;20.33;9.68;;;4.00;89.50;;;;;;4997717;28;20042;-60
2022/12/05 02:08:56;;;;;;;21.60;10.65;;;4.00;89.60;;;;;;5003947;28;20065;-60
2022/12/05 02:11:26;;;;;;;20.85;9.68;;;4.00;89.70;;;;;;4981078;28;20416;-60
2022/12/05 02:14:12;;;;;;;19.63;10.32;;;4.00;89.60;;;;;;4997817;28;20054;-60
2022/12/05 02:16:50;;;;;;;17.55;9.25;;;4.00;89.70;;;;;;5002533;28;20054;-60
2022/12/05 02:19:52;;;;;;;19.27;9.23;;;4.00;89.70;;;;;;4998118;28;20045;-61
2022/12/05 02:22:43;;;;;;;21.05;9.82;;;4.00;89.70;;;;;;5007059;28;20050;-61
2022/12/05 02:25:27;;;;;;;18.30;9.05;;;4.00;89.70;;;;;;5006024;28;20531;-59
2022/12/05 02:28:28;;;;;;;19.65;10.20;;;4.00;89.70;;;;;;4990812;28;20485;-60
2022/12/05 02:30:59;;;;;;;18.33;8.90;;;4.00;89.70;;;;;;5009112;28;20519;-60
2022/12/05 02:33:35;;;;;;;19.42;9.52;;;4.00;89.70;;;;;;5006469;28;20042;-60
2022/12/05 02:36:07;;;;;;;19.10;9.25;;;4.00;89.70;;;;;;5011266;28;20030;-60
2022/12/05 02:38:39;;;;;;;16.88;9.13;;;4.00;89.70;;;;;;5004479;28;20042;-60
2022/12/05 02:41:14;;;;;;;18.63;9.73;;;3.90;89.80;;;;;;5006294;28;20168;-60
2022/12/05 02:43:46;;;;;;;19.75;9.95;;;4.00;89.80;;;;;;5010742;28;20074;-60
2022/12/05 02:46:20;;;;;;;17.40;9.25;;;4.00;89.80;;;;;;5009617;28;20089;-60
2022/12/05 02:48:49;;;;;;;17.33;9.68;;;4.00;89.90;;;;;;5007879;28;20029;-60
2022/12/05 02:51:20;;;;;;;19.25;9.32;;;4.00;89.80;;;;;;5009924;28;20062;-61
2022/12/05 02:53:49;;;;;;;18.27;10.00;;;4.10;89.50;;;;;;5009969;28;20060;-60
2022/12/05 02:56:16;;;;;;;18.23;9.68;;;4.10;89.70;;;;;;5009316;28;20049;-60
2022/12/05 02:58:50;;;;;;;16.08;8.85;;;4.10;89.70;;;;;;5010256;28;20052;-60
2022/12/05 03:01:21;;;;;;;17.55;9.00;;;4.00;89.60;;;;;;5009269;28;20049;-58
2022/12/05 03:03:48;;;;;;;;;;;4.00;89.70;;;;;;5009740;28;20559;-59
2022/12/05 03:06:20;;;;;;;16.10;8.77;;;4.10;89.70;;;;;;5009560;28;19974;-59
2022/12/05 03:08:55;;;;;;;14.80;8.75;;;4.10;89.70;;;;;;5009330;28;20413;-59
2022/12/05 03:11:23;;;;;;;15.02;9.10;;;4.00;89.80;;;;;;5005242;28;20173;-59
2022/12/05 03:13:52;;;;;;;16.67;10.02;;;4.00;89.80;;;;;;5007659;28;20057;-59
2022/12/05 03:16:25;;;;;;;19.57;9.97;;;4.00;89.80;;;;;;4998894;28;20042;-58
2022/12/05 03:18:58;;;;;;;15.20;8.65;;;4.00;89.80;;;;;;5000864;28;20551;-58
2022/12/05 03:21:32;;;;;;;17.55;9.02;;;4.00;89.70;;;;;;5005475;28;20575;-58
2022/12/05 03:24:04;;;;;;;17.60;8.85;;;4.00;89.80;;;;;;5004711;28;20069;-58
2022/12/05 03:26:42;;;;;;;16.45;8.38;;;4.00;89.90;;;;;;5009413;28;20133;-59
2022/12/05 03:29:22;;;;;;;16.58;8.95;;;4.00;89.90;;;;;;5011001;28;20049;-58
2022/12/05 03:32:01;;;;;;;16.33;8.85;;;4.00;90.00;;;;;;5010741;28;20461;-59
2022/12/05 03:34:45;;;;;;;18.75;9.02;;;4.00;90.00;;;;;;5007482;28;20060;-59
2022/12/05 03:37:26;;;;;;;18.63;8.95;;;4.00;90.10;;;;;;5007525;28;20050;-59
2022/12/05 03:40:06;;;;;;;18.42;8.30;;;4.00;90.10;;;;;;5008133;28;20049;-58
2022/12/05 03:42:38;;;;;;;15.52;8.70;;;4.00;90.00;;;;;;5009048;28;20120;-59
2022/12/05 03:45:11;;;;;;;15.15;8.65;;;4.00;90.00;;;;;;5007134;28;20109;-59
2022/12/05 03:47:44;;;;;;;18.48;9.02;;;4.10;90.00;;;;;;5005948;28;20054;-58
2022/12/05 03:50:16;;;;;;;15.15;8.95;;;4.10;90.00;;;;;;5006882;28;20050;-58
2022/12/05 03:52:48;;;;;;;18.00;8.95;;;4.10;89.90;;;;;;5005115;28;20057;-59
2022/12/05 03:55:17;;;;;;;18.23;9.13;;;4.10;90.00;;;;;;5008188;28;20053;-59
2022/12/05 03:57:51;;;;;;;16.98;9.10;;;4.10;90.00;;;;;;5007262;28;20065;-58
2022/12/05 04:00:22;;;;;;;16.80;9.10;;;4.00;90.00;;;;;;5007020;28;20512;-59
2022/12/05 04:02:53;;;;;;;;;;;4.10;90.00;;;;;;5007801;28;20473;-58
2022/12/05 04:05:22;;;;;;;;;;;4.10;90.10;;;;;;4992029;28;19931;-59
2022/12/05 04:07:54;;;;;;;15.70;8.00;;;4.10;90.00;;;;;;4997568;28;20372;-59
2022/12/05 04:10:26;;;;;;;17.63;8.50;;;4.10;90.10;;;;;;5006294;28;20038;-59
2022/12/05 04:12:56;;;;;;;12.68;7.22;;;4.00;90.20;;;;;;5003293;28;20105;-58
2022/12/05 04:15:27;;;;;;;18.43;9.20;;;4.00;90.30;;;;;;5005346;28;20066;-58
2022/12/05 04:17:57;;;;;;;14.40;7.85;;;4.00;90.30;;;;;;5000769;28;20054;-58
2022/12/05 04:23:14;;;;;;;17.02;8.38;;;4.00;90.20;;;;;;5004896;28;20034;-58
2022/12/05 04:25:54;;;;;;;16.30;8.45;;;4.00;90.20;;;;;;5004245;28;20052;-59
2022/12/05 04:28:28;;;;;;;17.58;8.52;;;4.00;90.30;;;;;;5005200;28;20648;-58
2022/12/05 04:31:05;;;;;;;16.67;8.90;;;4.00;90.40;;;;;;5006649;28;20104;-60
2022/12/05 04:33:42;;;;;;;13.75;7.93;;;4.00;90.40;;;;;;5009658;28;20097;-60
2022/12/05 04:36:15;;;;;;;18.05;8.70;;;4.00;90.50;;;;;;4997310;28;20543;-69
2022/12/05 04:38:48;;;;;;;17.27;8.88;;;4.00;90.40;;;;;;5006454;28;20050;-70
2022/12/05 04:41:19;;;;;;;18.27;8.57;;;4.00;90.40;;;;;;5004948;28;20038;-69
2022/12/05 04:43:48;;;;;;;17.65;8.73;;;4.00;90.40;;;;;;5005712;28;20050;-69
2022/12/05 04:46:18;;;;;;;20.10;9.37;;;4.00;90.50;;;;;;4987161;28;20050;-70
2022/12/05 04:48:52;;;;;;;15.80;8.95;;;4.00;90.40;;;;;;5004425;28;20628;-69
2022/12/05 04:51:24;;;;;;;18.40;9.10;;;4.00;90.40;;;;;;5003348;28;20462;-69
2022/12/05 04:53:57;;;;;;;17.65;9.50;;;4.10;90.40;;;;;;5008713;28;20515;-69
2022/12/05 04:56:29;;;;;;;15.15;8.27;;;4.10;90.40;;;;;;4999200;28;20144;-59
2022/12/05 04:58:56;;;;;;;16.10;8.85;;;4.10;90.50;;;;;;5005073;28;20081;-59
2022/12/05 05:01:27;;;;;;;15.88;8.50;;;4.10;90.40;;;;;;4994599;28;20124;-59
2022/12/05 05:04:02;;;;;;;16.13;8.80;;;4.10;90.40;;;;;;5005799;28;20046;-59
2022/12/05 05:06:29;;;;;;;16.95;8.73;;;4.10;90.30;;;;;;5002248;28;20094;-59
2022/12/05 05:08:58;;;;;;;19.83;8.68;;;4.10;90.30;;;;;;5009370;28;20045;-59
2022/12/05 05:11:26;;;;;;;14.05;8.43;;;4.10;90.30;;;;;;5002171;28;20101;-59
2022/12/05 05:13:54;;;;;;;19.23;10.10;;;4.10;90.30;;;;;;5003213;28;20087;-59
2022/12/05 05:16:24;;;;;;;15.02;8.27;;;4.10;90.30;;;;;;5006439;28;20045;-59
2022/12/05 05:18:52;;;;;;;17.08;9.32;;;4.10;90.30;;;;;;5003720;28;20080;-59
2022/12/05 05:21:23;;;;;;;18.02;8.70;;;4.10;90.30;;;;;;5004513;28;20101;-60
2022/12/05 05:23:50;;;;;;;17.33;9.02;;;4.10;90.40;;;;;;5005170;28;20124;-59
2022/12/05 05:26:18;;;;;;;16.77;8.60;;;4.10;90.40;;;;;;4999860;28;20113;-59
2022/12/05 05:28:45;;;;;;;16.48;8.27;;;4.10;90.50;;;;;;5007456;28;20093;-59
2022/12/05 05:31:13;;;;;;;16.38;8.65;;;4.10;90.60;;;;;;4992174;28;20049;-59
2022/12/05 05:33:40;;;;;;;15.57;8.35;;;4.10;90.60;;;;;;5004708;28;20129;-59
2022/12/05 05:36:10;;;;;;;16.40;8.65;;;4.10;90.60;;;;;;4996963;28;20043;-60
2022/12/05 05:38:39;;;;;;;20.73;8.82;;;4.10;90.60;;;;;;5001024;28;20125;-60
2022/12/05 05:41:11;;;;;;;15.93;8.30;;;4.10;90.60;;;;;;5000617;28;20065;-60
2022/12/05 05:43:40;;;;;;;14.70;8.50;;;4.10;90.50;;;;;;5003642;28;20042;-60
2022/12/05 05:46:07;;;;;;;15.48;8.43;;;4.10;90.60;;;;;;4997637;28;20061;-58
2022/12/05 05:48:34;;;;;;;14.38;8.35;;;4.10;90.60;;;;;;5003702;28;20041;-59
2022/12/05 05:51:01;;;;;;;16.80;8.38;;;4.10;90.60;;;;;;4985013;28;20559;-59
2022/12/05 05:53:32;;;;;;;18.98;9.02;;;4.20;90.50;;;;;;5001941;28;20042;-61
2022/12/05 05:56:04;;;;;;;17.15;9.00;;;4.20;90.50;;;;;;4999397;28;20120;-59
2022/12/05 05:58:31;;;;;;;17.10;9.07;;;4.10;90.50;;;;;;5002425;28;20152;-60
2022/12/05 06:01:03;;;;;;;15.32;8.60;;;4.10;90.60;;;;;;5006734;28;20125;-59
2022/12/05 06:03:30;;;;;;;18.33;8.25;;;4.10;90.60;;;;;;5007792;28;20408;-59
2022/12/05 06:05:58;;;;;;;16.63;8.10;;;4.10;90.60;;;;;;5003030;28;20165;-59
2022/12/05 06:08:25;;;;;;;14.77;9.05;;;4.10;90.60;;;;;;5005419;28;20050;-59
2022/12/05 06:10:52;;;;;;;16.88;9.15;;;4.10;90.60;;;;;;5009217;28;20042;-60
2022/12/05 06:13:20;;;;;;;18.15;8.95;;;4.10;90.60;;;;;;5008768;28;20488;-62
2022/12/05 06:15:47;;;;;;;17.15;9.43;;;4.10;90.60;;;;;;5008777;28;20040;-59
2022/12/05 06:18:14;;;;;;;15.25;8.55;;;4.10;90.60;;;;;;5009621;28;20488;-59
2022/12/05 06:20:42;;;;;;;19.55;8.90;;;4.10;90.60;;;;;;5010147;28;20041;-59
2022/12/05 06:23:09;;;;;;;16.95;8.85;;;4.10;90.60;;;;;;5008036;28;20458;-63
2022/12/05 06:25:36;;;;;;;15.25;8.05;;;4.10;90.50;;;;;;5004928;28;20070;-64
2022/12/05 06:28:03;;;;;;;15.27;8.43;;;4.10;90.50;;;;;;5008927;28;20150;-63
2022/12/05 06:30:31;;;;;;;21.25;9.73;;;4.10;90.50;;;;;;5001967;28;20037;-63
2022/12/05 06:32:58;;;;;;;18.15;9.30;;;4.10;90.50;;;;;;5008120;28;20081;-63
2022/12/05 06:35:26;;;;;;;17.80;8.88;;;4.10;90.30;;;;;;5009023;28;20109;-63
2022/12/05 06:37:53;;;;;;;18.48;9.55;;;4.10;90.50;;;;;;5012036;28;20054;-63
2022/12/05 06:40:20;;;;;;;19.48;9.32;;;4.10;90.50;;;;;;5002904;28;20420;-64
2022/12/05 06:42:47;;;;;;;18.50;9.55;;;4.10;90.50;;;;;;5001523;28;20132;-64
2022/12/05 06:45:14;;;;;;;18.23;9.30;;;4.10;90.60;;;;;;4997525;28;20049;-64
2022/12/05 06:47:43;;;;;;;19.17;9.75;;;4.10;90.70;;;;;;5007828;28;20136;-67
2022/12/05 06:50:10;;;;;;;18.95;9.73;;;4.10;90.60;;;;;;5003046;28;20045;-66
2022/12/05 06:52:40;;;;;;;17.90;9.25;;;4.10;90.70;;;;;;5011229;28;20042;-65
2022/12/05 06:55:08;;;;;;;20.38;9.63;;;4.10;90.70;;;;;;5007213;28;20145;-64
2022/12/05 06:57:35;;;;;;;19.75;9.38;;;4.20;90.60;;;;;;5007056;28;20058;-65
2022/12/05 07:02:45;;;;;;;17.50;9.13;;;4.20;90.60;;;;;;5006435;28;20050;-66
2022/12/05 07:05:12;;;;;;;20.75;10.60;;;4.20;90.60;;;;;;4993850;28;20738;-64
2022/12/05 07:07:39;;;;;;;20.63;9.82;;;4.20;90.70;;;;;;5006211;28;20779;-64
2022/12/05 07:10:08;;;;;;;21.30;9.40;;;4.20;90.70;;;;;;5001925;28;20046;-64
2022/12/05 07:12:35;;;;;;;18.65;9.63;;;4.20;90.70;;;;;;5004881;28;20132;-64
2022/12/05 07:15:02;;;;;;;20.25;9.90;;;4.20;90.80;;;;;;5005530;28;20049;-63
2022/12/05 07:17:29;;;;;;;18.85;9.35;;;4.20;90.70;;;;;;5004774;28;20050;-64
2022/12/05 07:19:57;;;;;;;19.98;9.30;;;4.20;90.80;;;;;;5000442;28;20045;-64
2022/12/05 07:22:24;;;;;;;18.25;9.23;;;4.20;90.80;;;;;;5004963;28;20050;-60
2022/12/05 07:24:52;;;;;;;19.48;9.13;;;4.20;90.80;;;;;;5008612;28;20180;-60
2022/12/05 07:27:19;;;;;;;19.25;10.52;;;4.20;90.80;;;;;;5006584;28;20477;-59
2022/12/05 07:29:46;;;;;;;22.33;9.70;;;4.20;90.80;;;;;;5009151;28;20132;-60
2022/12/05 07:32:13;;;;;;;21.08;10.27;;;4.20;90.70;;;;;;5008378;28;20500;-60
2022/12/05 07:34:41;;;;;;;22.60;10.88;;;4.20;90.80;;;;;;5003114;28;20053;-60
2022/12/05 07:37:09;;;;;;;22.77;11.63;;;4.20;90.90;;;;;;4997721;28;20060;-60
2022/12/05 07:39:36;;;;;;;21.90;11.07;;;4.20;90.90;;;;;;5002623;28;20046;-60
2022/12/05 07:42:03;;;;;;;23.85;11.23;;;4.20;90.90;;;;;;4982617;28;20116;-60
2022/12/05 07:44:30;;;;;;;21.13;10.43;;;4.20;91.00;;;;;;5008803;28;20041;-60
2022/12/05 07:46:58;;;;;;;23.65;10.93;;;4.30;90.80;;;;;;4980695;28;20425;-60
2022/12/05 07:49:25;;;;;;;22.17;10.18;;;4.30;90.60;;;;;;5004802;28;20050;-60
2022/12/05 07:51:52;;;;;;;19.48;10.00;;;4.30;90.80;;;;;;5004769;28;20133;-61
2022/12/05 07:54:21;;;;;;;19.30;10.38;;;4.30;90.80;;;;;;5009489;28;20050;-60
2022/12/05 07:56:48;;;;;;;23.70;10.95;;;4.30;90.90;;;;;;5005626;28;20050;-60
2022/12/05 07:59:15;;;;;;;22.00;10.02;;;4.30;90.80;;;;;;5007663;28;20137;-60
2022/12/05 08:01:42;;;;;;;21.77;11.45;;;4.30;90.80;;;;;;4996802;28;20493;-60
2022/12/05 08:04:09;;;;;;;19.33;10.32;;;4.30;90.80;;;;;;5007433;28;20046;-60
2022/12/05 08:06:36;;;;;;;18.05;9.40;;;4.30;90.60;;;;;;5004577;28;20049;-60
2022/12/05 08:09:04;;;;;;;17.77;9.20;;;4.30;90.60;;;;;;5006152;28;20080;-60
2022/12/05 08:11:35;;;;;;;19.88;10.45;;;4.30;90.70;;;;;;5003357;28;20037;-59
2022/12/05 08:14:02;;;;;;;;;;;4.30;90.60;;;;;;5002899;28;20045;-60
2022/12/05 08:16:31;;;;;;;17.58;8.77;;;4.30;90.40;;;;;;5008049;28;20007;-60
2022/12/05 08:19:00;;;;;;;21.25;9.60;;;4.40;90.30;;;;;;5004683;28;20056;-60
2022/12/05 08:21:28;;;;;;;21.88;10.05;;;4.40;90.20;;;;;;4999611;28;20386;-61
2022/12/05 08:23:55;;;;;;;25.58;10.38;;;4.40;90.20;;;;;;5005422;28;20096;-60
2022/12/05 08:26:24;;;;;;;20.02;9.68;;;4.40;90.30;;;;;;5004827;28;20146;-60
2022/12/05 08:28:55;;;;;;;23.13;10.82;;;4.30;90.30;;;;;;5000099;28;20049;-61
2022/12/05 08:31:24;;;;;;;20.00;10.35;;;4.40;90.40;;;;;;5002198;28;20507;-62
2022/12/05 08:33:51;;;;;;;22.10;11.52;;;4.40;90.50;;;;;;5004183;28;20093;-61
2022/12/05 08:36:19;;;;;;;20.52;9.70;;;4.40;90.40;;;;;;4996567;28;20498;-60
2022/12/05 08:38:47;;;;;;;23.92;10.73;;;4.40;90.30;;;;;;5010799;28;20057;-60
2022/12/05 08:41:15;;;;;;;24.73;11.40;;;4.30;90.20;;;;;;5003236;28;20045;-59
2022/12/05 08:43:43;;;;;;;24.58;10.52;;;4.40;90.20;;;;;;5004162;28;20112;-61
2022/12/05 08:46:14;;;;;;;23.20;11.93;;;4.40;90.20;;;;;;5004907;28;20053;-61
2022/12/05 08:48:41;;;;;;;25.20;13.18;;;4.40;90.40;;;;;;5006177;28;20056;-61
2022/12/05 08:51:10;;;;;;;26.88;12.60;;;4.30;90.50;;;;;;4993407;28;20054;-61
2022/12/05 08:53:38;;;;;;;26.73;12.93;;;4.30;90.60;;;;;;5001524;28;20184;-60
2022/12/05 08:56:07;;;;;;;57.75;26.02;;;4.30;90.50;;;;;;5003775;28;20070;-60
2022/12/05 08:58:34;;;;;;;52.92;27.25;;;4.40;90.40;;;;;;4995953;28;20576;-60
2022/12/05 09:01:06;;;;;;;49.72;24.48;;;4.40;90.20;;;;;;4996841;28;20401;-60
2022/12/05 09:03:35;;;;;;;37.72;21.58;;;4.40;90.60;;;;;;4996461;28;20041;-60
2022/12/05 09:06:10;;;;;;;32.13;16.50;;;4.40;90.50;;;;;;4997621;28;20046;-60
2022/12/05 09:08:37;;;;;;;30.70;14.55;;;4.40;90.50;;;;;;5003981;28;20509;-60
2022/12/05 09:11:06;;;;;;;25.85;13.38;;;4.40;90.60;;;;;;4999674;28;20077;-60
2022/12/05 09:13:35;;;;;;;29.65;16.13;;;4.40;90.40;;;;;;4998304;28;20279;-60
2022/12/05 09:16:06;;;;;;;32.50;22.05;;;4.40;90.30;;;;;;4995407;28;20054;-59
2022/12/05 09:18:35;;;;;;;35.33;22.10;;;4.40;90.20;;;;;;4996914;28;20570;-59
2022/12/05 09:21:06;;;;;;;32.28;19.73;;;4.40;90.70;;;;;;5005094;28;20815;-59
2022/12/05 09:23:33;;;;;;;30.13;15.77;;;4.40;90.70;;;;;;5004900;28;20580;-60
2022/12/05 09:26:01;;;;;;;27.02;14.48;;;4.40;90.60;;;;;;5002301;28;20052;-60
2022/12/05 09:28:28;;;;;;;23.38;12.85;;;4.40;90.70;;;;;;5004778;28;20057;-60
2022/12/05 09:30:57;;;;;;;24.23;12.55;;;4.40;90.70;;;;;;5007201;28;20596;-60
2022/12/05 09:33:24;;;;;;;27.42;12.07;;;4.50;90.80;;;;;;5009118;28;20137;-60
2022/12/05 09:35:53;;;;;;;22.63;11.65;;;4.50;90.80;;;;;;5009273;28;20057;-60
2022/12/05 09:38:20;;;;;;;21.65;11.65;;;4.40;90.40;;;;;;5010990;28;20053;-60
2022/12/05 09:40:49;;;;;;;21.10;9.50;;;4.40;90.70;;;;;;5008164;28;20045;-60
2022/12/05 09:43:25;;;;;;;19.40;9.80;;;4.40;90.50;;;;;;5015191;28;20140;-60
2022/12/05 09:46:00;;;;;;;19.10;9.65;;;4.40;90.40;;;;;;5007123;28;20149;-60
2022/12/05 09:48:29;;;;;;;21.30;10.10;;;4.40;90.50;;;;;;5012325;28;20057;-60
2022/12/05 09:51:01;;;;;;;22.83;11.30;;;4.50;90.50;;;;;;5009068;28;20050;-60
2022/12/05 09:53:30;;;;;;;20.70;10.43;;;4.50;90.60;;;;;;5011009;28;20129;-59
2022/12/05 09:56:03;;;;;;;24.83;10.95;;;4.50;90.70;;;;;;5009831;28;20043;-60
2022/12/05 09:58:41;;;;;;;22.17;10.70;;;4.50;90.40;;;;;;5014832;28;20061;-58
2022/12/05 10:01:25;;;;;;;21.15;10.80;;;4.50;90.60;;;;;;4998544;28;20120;-59
2022/12/05 10:04:21;;;;;;;24.15;10.80;;;4.50;90.60;;;;;;5003255;28;20050;-60
2022/12/05 10:06:58;;;;;;;20.25;10.30;;;4.50;90.50;;;;;;5009937;28;20125;-62
2022/12/05 10:09:38;;;;;;;22.15;11.30;;;4.50;90.50;;;;;;5007410;28;20120;-60
2022/12/05 10:12:15;;;;;;;25.77;11.75;;;4.50;90.60;;;;;;5009707;28;20112;-60
2022/12/05 10:14:50;;;;;;;24.13;10.35;;;4.50;90.50;;;;;;5011250;28;20098;-60
2022/12/05 10:17:25;;;;;;;22.45;10.93;;;4.50;90.60;;;;;;5007002;28;20050;-58
2022/12/05 10:19:56;;;;;;;24.63;10.68;;;4.60;90.80;;;;;;5009416;28;20049;-58
2022/12/05 10:22:25;;;;;;;;;;;4.50;90.70;;;;;;5009295;28;20054;-58
2022/12/05 10:24:56;;;;;;;23.45;9.95;;;4.60;90.70;;;;;;5006015;28;19921;-60
2022/12/05 10:27:30;;;;;;;27.20;11.65;;;4.50;90.90;;;;;;5011216;28;20056;-58
2022/12/05 10:30:01;;;;;;;26.50;11.88;;;4.60;90.90;;;;;;5010690;28;20045;-58
2022/12/05 10:32:32;;;;;;;21.95;10.43;;;4.60;90.90;;;;;;5003582;28;20042;-57
2022/12/05 10:35:14;;;;;;;25.27;11.77;;;4.60;90.60;;;;;;5004369;28;20045;-58
2022/12/05 10:37:46;;;;;;;25.35;11.43;;;4.60;90.90;;;;;;5008743;28;20057;-58
2022/12/05 10:40:14;;;;;;;24.20;11.98;;;4.60;90.90;;;;;;5003197;28;20045;-57
2022/12/05 10:42:43;;;;;;;27.13;13.07;;;4.60;90.70;;;;;;5003821;28;20137;-57
2022/12/05 10:45:16;;;;;;;28.90;13.40;;;4.60;90.50;;;;;;5003583;28;20058;-58
2022/12/05 10:47:44;;;;;;;29.33;13.25;;;4.60;90.30;;;;;;5005529;28;20599;-58
2022/12/05 10:50:25;;;;;;;28.35;13.13;;;4.60;90.70;;;;;;5008477;28;20046;-57
2022/12/05 10:52:56;;;;;;;26.52;12.05;;;4.60;90.40;;;;;;4997359;28;20074;-59
2022/12/05 10:55:26;;;;;;;26.40;12.63;;;4.70;90.80;;;;;;5000182;28;20523;-57
2022/12/05 10:58:10;;;;;;;25.60;12.45;;;4.70;90.70;;;;;;4999490;28;20129;-57
2022/12/05 11:00:42;;;;;;;28.50;12.20;;;4.70;90.70;;;;;;5004412;28;20058;-58
2022/12/05 11:03:25;;;;;;;27.80;11.57;;;4.70;90.50;;;;;;5004676;28;20098;-58
2022/12/05 11:05:53;;;;;;;27.58;12.60;;;4.70;90.70;;;;;;5003914;28;20077;-58
2022/12/05 11:08:27;;;;;;;28.58;13.38;;;4.70;90.30;;;;;;5005078;28;20129;-58
2022/12/05 11:11:05;;;;;;;28.90;14.43;;;4.70;90.20;;;;;;5007360;28;20504;-58
2022/12/05 11:13:33;;;;;;;36.03;16.83;;;4.70;90.60;;;;;;5005977;28;20081;-57
2022/12/05 11:16:01;;;;;;;34.88;15.43;;;4.70;90.30;;;;;;5004098;28;20052;-58
2022/12/05 11:18:31;;;;;;;34.20;16.27;;;4.80;90.50;;;;;;5004914;28;20128;-58
2022/12/05 11:21:09;;;;;;;31.58;14.63;;;4.90;90.30;;;;;;5005194;28;20074;-60
2022/12/05 11:23:38;;;;;;;28.88;13.30;;;4.90;90.40;;;;;;4998051;28;20131;-57
2022/12/05 11:26:17;;;;;;;32.38;13.00;;;4.90;90.00;;;;;;5004787;28;20093;-59
2022/12/05 11:28:45;;;;;;;31.50;13.50;;;4.90;90.00;;;;;;5006995;28;20046;-59
2022/12/05 11:31:26;;;;;;;31.30;13.07;;;4.90;90.40;;;;;;4999000;28;20052;-59
2022/12/05 11:34:14;;;;;;;28.42;12.48;;;4.90;90.60;;;;;;5004786;28;20056;-59
2022/12/05 11:36:46;;;;;;;31.33;14.15;;;4.90;90.50;;;;;;5003958;28;20137;-59
2022/12/05 11:39:15;;;;;;;30.00;14.35;;;5.00;90.50;;;;;;5002499;28;20053;-59
2022/12/05 11:41:57;;;;;;;30.95;14.25;;;5.00;90.50;;;;;;5001411;28;20046;-58
2022/12/05 11:44:49;;;;;;;25.65;13.35;;;5.00;90.50;;;;;;5001508;28;20045;-59
2022/12/05 11:47:26;;;;;;;30.25;13.68;;;5.00;90.40;;;;;;5007317;28;20062;-59
2022/12/05 11:50:11;;;;;;;27.77;12.40;;;5.00;90.10;;;;;;5000922;28;20045;-59
2022/12/05 11:52:55;;;;;;;23.92;12.32;;;5.00;90.40;;;;;;5003393;28;20058;-58
2022/12/05 11:55:26;;;;;;;25.20;12.70;;;5.00;90.40;;;;;;4982964;28;20459;-58
2022/12/05 11:58:07;;;;;;;24.65;11.75;;;5.00;90.20;;;;;;4998904;28;20058;-58
2022/12/05 12:00:42;;;;;;;27.20;12.23;;;5.00;90.20;;;;;;5002630;28;20046;-58
2022/12/05 12:03:34;;;;;;;30.55;13.15;;;5.00;90.00;;;;;;5003848;28;20046;-59
2022/12/05 12:06:17;;;;;;;26.58;13.18;;;4.90;90.00;;;;;;4986103;28;20052;-58
2022/12/05 12:08:56;;;;;;;24.27;12.23;;;4.90;90.10;;;;;;4999498;28;20050;-59
2022/12/05 12:11:32;;;;;;;28.10;12.27;;;5.00;90.50;;;;;;5008607;28;20050;-58
2022/12/05 12:14:12;;;;;;;25.60;11.82;;;5.00;90.50;;;;;;5003753;28;20136;-59
2022/12/05 12:16:49;;;;;;;27.98;12.60;;;5.00;90.50;;;;;;4994594;28;20062;-59
2022/12/05 12:19:35;;;;;;;26.67;12.07;;;5.00;90.60;;;;;;4994176;28;20049;-59
2022/12/05 12:22:17;;;;;;;26.70;12.95;;;5.00;90.30;;;;;;4977016;28;20046;-59
2022/12/05 12:25:00;;;;;;;26.27;12.48;;;5.00;90.50;;;;;;5006584;28;20041;-59
2022/12/05 12:27:40;;;;;;;28.20;12.45;;;5.00;90.20;;;;;;5004884;28;20050;-59
2022/12/05 12:30:15;;;;;;;23.77;11.07;;;5.00;90.20;;;;;;4999936;28;20104;-58
2022/12/05 12:32:54;;;;;;;27.38;11.85;;;5.00;90.40;;;;;;5004777;28;20042;-59
2022/12/05 12:35:29;;;;;;;22.65;11.02;;;5.00;90.40;;;;;;4996052;28;20057;-58
2022/12/05 12:38:20;;;;;;;25.05;11.27;;;5.00;90.60;;;;;;4997002;28;20136;-60
2022/12/05 12:40:50;;;;;;;25.75;11.60;;;5.00;90.60;;;;;;4992449;28;20325;-59
2022/12/05 12:43:37;;;;;;;22.77;11.23;;;5.10;90.90;;;;;;5008297;28;20129;-59
2022/12/05 12:46:23;;;;;;;23.17;11.32;;;5.10;90.90;;;;;;5006145;28;20054;-59
2022/12/05 12:49:09;;;;;;;22.98;10.27;;;5.10;90.40;;;;;;5003248;28;20132;-60
2022/12/05 12:51:43;;;;;;;24.33;10.68;;;5.10;90.50;;;;;;5006177;28;20067;-58
2022/12/05 12:54:27;;;;;;;19.80;10.18;;;5.10;90.80;;;;;;5006245;28;20045;-60
2022/12/05 12:57:03;;;;;;;23.63;10.65;;;5.10;91.00;;;;;;4997595;28;20097;-60
2022/12/05 12:59:47;;;;;;;20.60;9.88;;;5.10;91.00;;;;;;5003164;28;20408;-60
2022/12/05 13:02:21;;;;;;;19.83;10.18;;;5.10;91.10;;;;;;5004178;28;20069;-59
2022/12/05 13:04:54;;;;;;;20.15;10.30;;;5.20;91.10;;;;;;5003802;28;20050;-59
2022/12/05 13:07:26;;;;;;;21.25;10.15;;;5.20;90.70;;;;;;5004476;28;20046;-61
2022/12/05 13:09:58;;;;;;;18.98;9.95;;;5.20;90.80;;;;;;5002223;28;20062;-60
2022/12/05 13:12:29;;;;;;;20.30;9.15;;;5.20;90.70;;;;;;4984611;28;20176;-61